sensor_id;sensor_type;location;lat;lon;timestamp;temperature;humidity
2973;DHT22;1496;51.404;7.232;2023-12-28T00:00:46;7.60;1.00
2973;DHT22;1496;51.404;7.232;2023-12-28T00:03:13;7.60;1.00
2973;DHT22;1496;51.404;7.232;2023-12-28T00:05:39;7.60;89.80
2973;DHT22;1496;51.404;7.232;2023-12-28T00:08:05;7.60;1.00
2973;DHT22;1496;51.404;7.232;2023-12-28T00:10:31;7.60;99.90
2973;DHT22;1496;51.404;7.232;2023-12-28T00:12:56;7.60;1.00
2973;DHT22;1496;51.404;7.232;2023-12-28T00:15:22;7.50;1.00
2973;DHT22;1496;51.404;7.232;2023-12-28T00:17:48;7.50;1.00
2973;DHT22;1496;51.404;7.232;2023-12-28T00:20:14;7.50;1.00
2973;DHT22;1496;51.404;7.232;2023-12-28T00:22:39;7.50;99.90
2973;DHT22;1496;51.404;7.232;2023-12-28T00:25:05;7.50;1.00
2973;DHT22;1496;51.404;7.232;2023-12-28T00:27:31;7.50;99.90
2973;DHT22;1496;51.404;7.232;2023-12-28T00:29:59;7.40;99.90
2973;DHT22;1496;51.404;7.232;2023-12-28T00:32:25;7.30;99.90
2973;DHT22;1496;51.404;7.232;2023-12-28T00:34:51;7.30;99.90
2973;DHT22;1496;51.404;7.232;2023-12-28T00:37:16;7.30;99.90
2973;DHT22;1496;51.404;7.232;2023-12-28T00:39:42;7.30;99.90
2973;DHT22;1496;51.404;7.232;2023-12-28T00:42:08;7.30;99.90
2973;DHT22;1496;51.404;7.232;2023-12-28T00:44:34;7.40;99.90
2973;DHT22;1496;51.404;7.232;2023-12-28T00:46:59;7.40;99.90
2973;DHT22;1496;51.404;7.232;2023-12-28T00:49:25;7.50;99.90
2973;DHT22;1496;51.404;7.232;2023-12-28T00:51:51;7.50;99.90
2973;DHT22;1496;51.404;7.232;2023-12-28T00:54:17;7.50;99.90
2973;DHT22;1496;51.404;7.232;2023-12-28T00:56:42;7.60;99.90
2973;DHT22;1496;51.404;7.232;2023-12-28T00:59:08;7.60;99.90
2973;DHT22;1496;51.404;7.232;2023-12-28T01:01:34;7.70;99.90
2973;DHT22;1496;51.404;7.232;2023-12-28T01:03:59;7.80;99.90
2973;DHT22;1496;51.404;7.232;2023-12-28T01:06:25;7.80;99.90
2973;DHT22;1496;51.404;7.232;2023-12-28T01:08:55;7.90;99.90
2973;DHT22;1496;51.404;7.232;2023-12-28T01:11:21;8.00;1.00
2973;DHT22;1496;51.404;7.232;2023-12-28T01:13:47;8.00;1.00
2973;DHT22;1496;51.404;7.232;2023-12-28T01:16:13;8.10;99.90
2973;DHT22;1496;51.404;7.232;2023-12-28T01:18:39;8.10;1.00
2973;DHT22;1496;51.404;7.232;2023-12-28T01:21:05;8.10;1.00
2973;DHT22;1496;51.404;7.232;2023-12-28T01:23:32;8.20;99.90
2973;DHT22;1496;51.404;7.232;2023-12-28T01:25:59;8.20;1.00
2973;DHT22;1496;51.404;7.232;2023-12-28T01:28:25;8.20;1.00
2973;DHT22;1496;51.404;7.232;2023-12-28T01:30:51;8.30;1.00
2973;DHT22;1496;51.404;7.232;2023-12-28T01:33:17;8.30;1.00
2973;DHT22;1496;51.404;7.232;2023-12-28T01:35:43;8.30;1.00
2973;DHT22;1496;51.404;7.232;2023-12-28T01:38:08;8.20;1.00
2973;DHT22;1496;51.404;7.232;2023-12-28T01:40:35;8.30;1.00
2973;DHT22;1496;51.404;7.232;2023-12-28T01:43:01;8.20;1.00
2973;DHT22;1496;51.404;7.232;2023-12-28T01:45:27;8.20;1.00
2973;DHT22;1496;51.404;7.232;2023-12-28T01:47:53;8.30;1.00
2973;DHT22;1496;51.404;7.232;2023-12-28T01:50:21;8.30;1.00
2973;DHT22;1496;51.404;7.232;2023-12-28T01:52:49;8.30;1.00
2973;DHT22;1496;51.404;7.232;2023-12-28T01:55:16;8.40;1.00
2973;DHT22;1496;51.404;7.232;2023-12-28T01:57:42;8.40;1.00
2973;DHT22;1496;51.404;7.232;2023-12-28T02:00:08;8.50;1.00
2973;DHT22;1496;51.404;7.232;2023-12-28T02:02:40;8.40;1.00
2973;DHT22;1496;51.404;7.232;2023-12-28T02:05:08;8.50;1.00
2973;DHT22;1496;51.404;7.232;2023-12-28T02:07:35;8.60;1.00
2973;DHT22;1496;51.404;7.232;2023-12-28T02:10:02;8.70;99.90
2973;DHT22;1496;51.404;7.232;2023-12-28T02:12:27;8.70;99.90
2973;DHT22;1496;51.404;7.232;2023-12-28T02:14:53;8.70;99.90
2973;DHT22;1496;51.404;7.232;2023-12-28T02:17:23;8.70;99.90
2973;DHT22;1496;51.404;7.232;2023-12-28T02:19:55;8.70;99.90
2973;DHT22;1496;51.404;7.232;2023-12-28T02:22:24;8.70;99.90
2973;DHT22;1496;51.404;7.232;2023-12-28T02:25:08;8.70;99.90
2973;DHT22;1496;51.404;7.232;2023-12-28T02:27:48;8.70;99.90
2973;DHT22;1496;51.404;7.232;2023-12-28T02:30:20;8.70;99.90
2973;DHT22;1496;51.404;7.232;2023-12-28T02:33:12;8.90;99.90
2973;DHT22;1496;51.404;7.232;2023-12-28T02:36:09;8.90;99.90
2973;DHT22;1496;51.404;7.232;2023-12-28T02:38:37;8.90;99.90
2973;DHT22;1496;51.404;7.232;2023-12-28T02:41:04;9.00;99.90
2973;DHT22;1496;51.404;7.232;2023-12-28T02:43:30;8.90;99.90
2973;DHT22;1496;51.404;7.232;2023-12-28T02:45:56;8.80;99.90
2973;DHT22;1496;51.404;7.232;2023-12-28T02:48:22;8.80;99.90
2973;DHT22;1496;51.404;7.232;2023-12-28T02:50:47;8.80;99.90
2973;DHT22;1496;51.404;7.232;2023-12-28T02:53:13;8.70;99.90
2973;DHT22;1496;51.404;7.232;2023-12-28T02:55:39;8.70;99.90
2973;DHT22;1496;51.404;7.232;2023-12-28T02:58:05;8.80;99.90
2973;DHT22;1496;51.404;7.232;2023-12-28T03:00:30;8.70;99.90
2973;DHT22;1496;51.404;7.232;2023-12-28T03:02:56;8.70;99.90
2973;DHT22;1496;51.404;7.232;2023-12-28T03:05:23;8.70;99.90
2973;DHT22;1496;51.404;7.232;2023-12-28T03:07:48;8.80;99.90
2973;DHT22;1496;51.404;7.232;2023-12-28T03:10:14;8.70;99.90
2973;DHT22;1496;51.404;7.232;2023-12-28T03:12:40;8.80;99.90
2973;DHT22;1496;51.404;7.232;2023-12-28T03:15:06;8.90;99.90
2973;DHT22;1496;51.404;7.232;2023-12-28T03:17:32;8.90;99.90
2973;DHT22;1496;51.404;7.232;2023-12-28T03:20:01;8.90;99.90
2973;DHT22;1496;51.404;7.232;2023-12-28T03:22:27;8.90;99.90
2973;DHT22;1496;51.404;7.232;2023-12-28T03:24:52;8.90;99.90
2973;DHT22;1496;51.404;7.232;2023-12-28T03:27:18;8.90;99.90
2973;DHT22;1496;51.404;7.232;2023-12-28T03:29:44;8.90;99.90
2973;DHT22;1496;51.404;7.232;2023-12-28T03:32:10;9.00;99.90
2973;DHT22;1496;51.404;7.232;2023-12-28T03:34:36;9.00;99.90
2973;DHT22;1496;51.404;7.232;2023-12-28T03:37:03;9.00;99.90
2973;DHT22;1496;51.404;7.232;2023-12-28T03:39:29;9.10;99.90
2973;DHT22;1496;51.404;7.232;2023-12-28T03:41:54;9.10;99.90
2973;DHT22;1496;51.404;7.232;2023-12-28T03:44:20;9.20;99.90
2973;DHT22;1496;51.404;7.232;2023-12-28T03:46:50;9.20;99.90
2973;DHT22;1496;51.404;7.232;2023-12-28T03:49:17;9.20;99.90
2973;DHT22;1496;51.404;7.232;2023-12-28T03:51:43;9.00;99.90
2973;DHT22;1496;51.404;7.232;2023-12-28T03:54:09;9.00;99.90
2973;DHT22;1496;51.404;7.232;2023-12-28T03:56:35;9.00;99.90
2973;DHT22;1496;51.404;7.232;2023-12-28T03:59:01;8.90;99.90
2973;DHT22;1496;51.404;7.232;2023-12-28T04:01:27;8.90;99.90
2973;DHT22;1496;51.404;7.232;2023-12-28T04:03:53;9.00;99.90
2973;DHT22;1496;51.404;7.232;2023-12-28T04:06:19;8.90;99.90
2973;DHT22;1496;51.404;7.232;2023-12-28T04:08:44;8.90;99.90
2973;DHT22;1496;51.404;7.232;2023-12-28T04:11:10;8.90;99.90
2973;DHT22;1496;51.404;7.232;2023-12-28T04:13:36;8.90;99.90
2973;DHT22;1496;51.404;7.232;2023-12-28T04:16:02;8.90;99.90
2973;DHT22;1496;51.404;7.232;2023-12-28T04:18:29;8.90;99.90
2973;DHT22;1496;51.404;7.232;2023-12-28T04:20:54;8.80;99.90
2973;DHT22;1496;51.404;7.232;2023-12-28T04:23:20;8.80;99.90
2973;DHT22;1496;51.404;7.232;2023-12-28T04:25:46;8.80;99.90
2973;DHT22;1496;51.404;7.232;2023-12-28T04:28:12;8.80;99.90
2973;DHT22;1496;51.404;7.232;2023-12-28T04:30:38;8.90;99.90
2973;DHT22;1496;51.404;7.232;2023-12-28T04:33:04;8.90;99.90
2973;DHT22;1496;51.404;7.232;2023-12-28T04:35:30;8.90;99.90
2973;DHT22;1496;51.404;7.232;2023-12-28T04:37:56;9.00;99.90
2973;DHT22;1496;51.404;7.232;2023-12-28T04:40:22;9.00;99.90
2973;DHT22;1496;51.404;7.232;2023-12-28T04:42:48;9.00;99.90
2973;DHT22;1496;51.404;7.232;2023-12-28T04:45:13;9.00;99.90
2973;DHT22;1496;51.404;7.232;2023-12-28T04:47:40;9.10;99.90
2973;DHT22;1496;51.404;7.232;2023-12-28T04:50:06;9.10;99.90
2973;DHT22;1496;51.404;7.232;2023-12-28T04:52:32;9.10;99.90
2973;DHT22;1496;51.404;7.232;2023-12-28T04:54:58;9.20;99.90
2973;DHT22;1496;51.404;7.232;2023-12-28T04:57:23;9.20;99.90
2973;DHT22;1496;51.404;7.232;2023-12-28T04:59:53;9.30;99.90
2973;DHT22;1496;51.404;7.232;2023-12-28T05:02:19;9.30;99.90
2973;DHT22;1496;51.404;7.232;2023-12-28T05:04:45;9.40;99.90
2973;DHT22;1496;51.404;7.232;2023-12-28T05:07:11;9.40;99.90
2973;DHT22;1496;51.404;7.232;2023-12-28T05:09:37;9.40;99.90
2973;DHT22;1496;51.404;7.232;2023-12-28T05:12:03;9.30;97.10
2973;DHT22;1496;51.404;7.232;2023-12-28T05:14:29;9.20;99.90
2973;DHT22;1496;51.404;7.232;2023-12-28T05:16:55;9.10;99.90
2973;DHT22;1496;51.404;7.232;2023-12-28T05:19:21;9.10;99.90
2973;DHT22;1496;51.404;7.232;2023-12-28T05:21:47;9.10;99.00
2973;DHT22;1496;51.404;7.232;2023-12-28T05:24:13;9.10;99.90
2973;DHT22;1496;51.404;7.232;2023-12-28T05:26:39;9.20;99.60
2973;DHT22;1496;51.404;7.232;2023-12-28T05:29:05;9.20;99.70
2973;DHT22;1496;51.404;7.232;2023-12-28T05:31:30;9.20;95.60
2973;DHT22;1496;51.404;7.232;2023-12-28T05:33:56;9.20;92.20
2973;DHT22;1496;51.404;7.232;2023-12-28T05:36:24;9.20;92.70
2973;DHT22;1496;51.404;7.232;2023-12-28T05:38:49;9.10;93.00
2973;DHT22;1496;51.404;7.232;2023-12-28T05:41:15;9.20;90.80
2973;DHT22;1496;51.404;7.232;2023-12-28T05:43:41;9.20;90.40
2973;DHT22;1496;51.404;7.232;2023-12-28T05:46:06;9.20;87.70
2973;DHT22;1496;51.404;7.232;2023-12-28T05:48:32;9.30;75.70
2973;DHT22;1496;51.404;7.232;2023-12-28T05:50:57;9.30;73.30
2973;DHT22;1496;51.404;7.232;2023-12-28T05:53:26;9.30;72.60
2973;DHT22;1496;51.404;7.232;2023-12-28T05:55:53;9.40;69.10
2973;DHT22;1496;51.404;7.232;2023-12-28T05:58:19;9.30;69.00
2973;DHT22;1496;51.404;7.232;2023-12-28T06:00:45;9.40;59.00
2973;DHT22;1496;51.404;7.232;2023-12-28T06:03:13;9.50;56.10
2973;DHT22;1496;51.404;7.232;2023-12-28T06:05:39;9.50;54.20
2973;DHT22;1496;51.404;7.232;2023-12-28T06:08:05;9.40;56.80
2973;DHT22;1496;51.404;7.232;2023-12-28T06:10:31;9.40;61.00
2973;DHT22;1496;51.404;7.232;2023-12-28T06:12:56;9.40;50.80
2973;DHT22;1496;51.404;7.232;2023-12-28T06:15:22;9.40;52.20
2973;DHT22;1496;51.404;7.232;2023-12-28T06:17:48;9.40;52.90
2973;DHT22;1496;51.404;7.232;2023-12-28T06:20:13;9.20;49.30
2973;DHT22;1496;51.404;7.232;2023-12-28T06:22:39;9.10;51.20
2973;DHT22;1496;51.404;7.232;2023-12-28T06:25:05;9.10;50.10
2973;DHT22;1496;51.404;7.232;2023-12-28T06:27:32;9.00;49.90
2973;DHT22;1496;51.404;7.232;2023-12-28T06:29:58;9.20;48.30
2973;DHT22;1496;51.404;7.232;2023-12-28T06:32:24;9.20;53.00
2973;DHT22;1496;51.404;7.232;2023-12-28T06:34:49;9.10;55.80
2973;DHT22;1496;51.404;7.232;2023-12-28T06:37:15;9.10;53.80
2973;DHT22;1496;51.404;7.232;2023-12-28T06:39:41;9.10;48.60
2973;DHT22;1496;51.404;7.232;2023-12-28T06:42:06;9.10;48.90
2973;DHT22;1496;51.404;7.232;2023-12-28T06:44:32;9.00;49.30
2973;DHT22;1496;51.404;7.232;2023-12-28T06:46:58;9.10;47.00
2973;DHT22;1496;51.404;7.232;2023-12-28T06:49:24;9.10;43.90
2973;DHT22;1496;51.404;7.232;2023-12-28T06:51:50;9.20;42.50
2973;DHT22;1496;51.404;7.232;2023-12-28T06:54:15;9.20;44.70
2973;DHT22;1496;51.404;7.232;2023-12-28T06:56:42;9.20;43.70
2973;DHT22;1496;51.404;7.232;2023-12-28T06:59:08;9.10;43.40
2973;DHT22;1496;51.404;7.232;2023-12-28T07:01:38;9.20;40.90
2973;DHT22;1496;51.404;7.232;2023-12-28T07:04:04;9.10;40.40
2973;DHT22;1496;51.404;7.232;2023-12-28T07:06:29;9.00;41.80
2973;DHT22;1496;51.404;7.232;2023-12-28T07:08:55;9.00;42.60
2973;DHT22;1496;51.404;7.232;2023-12-28T07:11:21;9.10;38.30
2973;DHT22;1496;51.404;7.232;2023-12-28T07:13:46;9.00;39.90
2973;DHT22;1496;51.404;7.232;2023-12-28T07:16:12;9.00;41.20
2973;DHT22;1496;51.404;7.232;2023-12-28T07:18:38;8.90;41.70
2973;DHT22;1496;51.404;7.232;2023-12-28T07:21:04;9.10;40.00
2973;DHT22;1496;51.404;7.232;2023-12-28T07:23:31;9.00;41.00
2973;DHT22;1496;51.404;7.232;2023-12-28T07:25:57;9.00;39.70
2973;DHT22;1496;51.404;7.232;2023-12-28T07:28:23;9.00;39.50
2973;DHT22;1496;51.404;7.232;2023-12-28T07:30:48;8.90;37.50
2973;DHT22;1496;51.404;7.232;2023-12-28T07:33:14;8.90;36.30
2973;DHT22;1496;51.404;7.232;2023-12-28T07:35:40;8.90;37.50
2973;DHT22;1496;51.404;7.232;2023-12-28T07:38:06;8.90;35.30
2973;DHT22;1496;51.404;7.232;2023-12-28T07:40:32;9.00;34.10
2973;DHT22;1496;51.404;7.232;2023-12-28T07:42:57;8.90;39.70
2973;DHT22;1496;51.404;7.232;2023-12-28T07:45:23;8.90;38.10
2973;DHT22;1496;51.404;7.232;2023-12-28T07:47:50;9.00;37.90
2973;DHT22;1496;51.404;7.232;2023-12-28T07:50:17;8.90;37.90
2973;DHT22;1496;51.404;7.232;2023-12-28T07:52:45;8.90;35.40
2973;DHT22;1496;51.404;7.232;2023-12-28T07:55:12;8.90;38.40
2973;DHT22;1496;51.404;7.232;2023-12-28T07:57:38;9.00;33.50
2973;DHT22;1496;51.404;7.232;2023-12-28T08:00:04;9.10;34.80
2973;DHT22;1496;51.404;7.232;2023-12-28T08:02:31;9.20;30.70
2973;DHT22;1496;51.404;7.232;2023-12-28T08:04:56;9.20;28.40
2973;DHT22;1496;51.404;7.232;2023-12-28T08:07:22;9.20;29.30
2973;DHT22;1496;51.404;7.232;2023-12-28T08:09:48;9.00;32.40
2973;DHT22;1496;51.404;7.232;2023-12-28T08:12:14;9.00;32.40
2973;DHT22;1496;51.404;7.232;2023-12-28T08:14:39;9.00;34.50
2973;DHT22;1496;51.404;7.232;2023-12-28T08:17:05;9.00;33.30
2973;DHT22;1496;51.404;7.232;2023-12-28T08:19:31;9.00;37.00
2973;DHT22;1496;51.404;7.232;2023-12-28T08:21:56;9.00;32.00
2973;DHT22;1496;51.404;7.232;2023-12-28T08:24:22;9.00;37.40
2973;DHT22;1496;51.404;7.232;2023-12-28T08:26:48;9.00;38.80
2973;DHT22;1496;51.404;7.232;2023-12-28T08:29:13;9.10;36.90
2973;DHT22;1496;51.404;7.232;2023-12-28T08:31:39;9.10;34.80
2973;DHT22;1496;51.404;7.232;2023-12-28T08:34:04;9.20;29.50
2973;DHT22;1496;51.404;7.232;2023-12-28T08:36:30;9.30;28.60
2973;DHT22;1496;51.404;7.232;2023-12-28T08:38:56;9.30;26.30
2973;DHT22;1496;51.404;7.232;2023-12-28T08:41:23;9.30;25.70
2973;DHT22;1496;51.404;7.232;2023-12-28T08:43:53;9.30;25.20
2973;DHT22;1496;51.404;7.232;2023-12-28T08:46:22;9.30;26.70
2973;DHT22;1496;51.404;7.232;2023-12-28T08:48:50;9.30;24.40
2973;DHT22;1496;51.404;7.232;2023-12-28T08:51:16;9.30;26.60
2973;DHT22;1496;51.404;7.232;2023-12-28T08:53:42;9.40;18.50
2973;DHT22;1496;51.404;7.232;2023-12-28T08:56:20;9.50;21.60
2973;DHT22;1496;51.404;7.232;2023-12-28T08:58:47;9.50;19.80
2973;DHT22;1496;51.404;7.232;2023-12-28T09:03:42;9.30;22.40
2973;DHT22;1496;51.404;7.232;2023-12-28T09:06:08;9.30;21.90
2973;DHT22;1496;51.404;7.232;2023-12-28T09:08:34;9.30;20.80
2973;DHT22;1496;51.404;7.232;2023-12-28T09:11:00;9.30;15.80
2973;DHT22;1496;51.404;7.232;2023-12-28T09:13:26;9.30;21.20
2973;DHT22;1496;51.404;7.232;2023-12-28T09:15:52;9.40;21.60
2973;DHT22;1496;51.404;7.232;2023-12-28T09:18:17;9.40;22.90
2973;DHT22;1496;51.404;7.232;2023-12-28T09:20:43;9.30;24.90
2973;DHT22;1496;51.404;7.232;2023-12-28T09:23:09;9.30;28.00
2973;DHT22;1496;51.404;7.232;2023-12-28T09:25:36;9.30;22.70
2973;DHT22;1496;51.404;7.232;2023-12-28T09:28:04;9.30;23.70
2973;DHT22;1496;51.404;7.232;2023-12-28T09:30:30;9.40;21.60
2973;DHT22;1496;51.404;7.232;2023-12-28T09:32:57;9.50;24.10
2973;DHT22;1496;51.404;7.232;2023-12-28T09:35:22;9.50;23.40
2973;DHT22;1496;51.404;7.232;2023-12-28T09:37:48;9.60;22.10
2973;DHT22;1496;51.404;7.232;2023-12-28T09:40:14;9.60;20.50
2973;DHT22;1496;51.404;7.232;2023-12-28T09:42:57;9.70;16.40
2973;DHT22;1496;51.404;7.232;2023-12-28T09:45:25;9.70;17.90
2973;DHT22;1496;51.404;7.232;2023-12-28T09:47:51;9.70;16.20
2973;DHT22;1496;51.404;7.232;2023-12-28T09:50:18;9.80;15.50
2973;DHT22;1496;51.404;7.232;2023-12-28T09:52:44;9.80;12.20
2973;DHT22;1496;51.404;7.232;2023-12-28T09:55:10;9.80;14.00
2973;DHT22;1496;51.404;7.232;2023-12-28T09:57:37;9.80;16.40
2973;DHT22;1496;51.404;7.232;2023-12-28T10:00:03;9.80;11.40
2973;DHT22;1496;51.404;7.232;2023-12-28T10:02:41;9.80;8.50
2973;DHT22;1496;51.404;7.232;2023-12-28T10:05:12;9.80;9.50
2973;DHT22;1496;51.404;7.232;2023-12-28T10:07:42;9.70;9.00
2973;DHT22;1496;51.404;7.232;2023-12-28T10:10:09;9.70;7.10
2973;DHT22;1496;51.404;7.232;2023-12-28T10:12:35;9.50;6.50
2973;DHT22;1496;51.404;7.232;2023-12-28T10:15:01;9.60;10.30
2973;DHT22;1496;51.404;7.232;2023-12-28T10:17:26;9.60;5.30
2973;DHT22;1496;51.404;7.232;2023-12-28T10:19:53;9.70;6.60
2973;DHT22;1496;51.404;7.232;2023-12-28T10:22:19;9.70;6.00
2973;DHT22;1496;51.404;7.232;2023-12-28T10:24:45;9.80;10.10
2973;DHT22;1496;51.404;7.232;2023-12-28T10:27:15;9.90;9.50
2973;DHT22;1496;51.404;7.232;2023-12-28T10:29:40;10.00;6.40
2973;DHT22;1496;51.404;7.232;2023-12-28T10:32:07;9.90;4.00
2973;DHT22;1496;51.404;7.232;2023-12-28T10:34:32;10.00;1.50
2973;DHT22;1496;51.404;7.232;2023-12-28T10:36:59;9.90;4.30
2973;DHT22;1496;51.404;7.232;2023-12-28T10:39:25;9.80;4.70
2973;DHT22;1496;51.404;7.232;2023-12-28T10:41:54;9.90;2.50
2973;DHT22;1496;51.404;7.232;2023-12-28T10:44:23;9.90;4.30
2973;DHT22;1496;51.404;7.232;2023-12-28T10:46:57;10.00;1.00
2973;DHT22;1496;51.404;7.232;2023-12-28T10:49:25;10.10;3.10
2973;DHT22;1496;51.404;7.232;2023-12-28T10:51:52;10.20;4.10
2973;DHT22;1496;51.404;7.232;2023-12-28T11:02:16;10.40;1.00
2973;DHT22;1496;51.404;7.232;2023-12-28T11:04:48;10.40;1.00
2973;DHT22;1496;51.404;7.232;2023-12-28T11:07:17;10.40;1.00
2973;DHT22;1496;51.404;7.232;2023-12-28T11:09:43;10.30;1.00
2973;DHT22;1496;51.404;7.232;2023-12-28T11:12:09;10.40;1.00
2973;DHT22;1496;51.404;7.232;2023-12-28T11:14:39;10.40;1.00
2973;DHT22;1496;51.404;7.232;2023-12-28T11:17:05;10.40;1.00
2973;DHT22;1496;51.404;7.232;2023-12-28T11:19:31;10.50;1.00
2973;DHT22;1496;51.404;7.232;2023-12-28T11:21:58;10.50;1.00
2973;DHT22;1496;51.404;7.232;2023-12-28T11:24:27;10.50;1.00
2973;DHT22;1496;51.404;7.232;2023-12-28T11:26:54;10.50;1.00
2973;DHT22;1496;51.404;7.232;2023-12-28T11:29:21;10.60;1.00
2973;DHT22;1496;51.404;7.232;2023-12-28T11:31:54;10.50;1.00
2973;DHT22;1496;51.404;7.232;2023-12-28T11:34:28;10.50;1.00
2973;DHT22;1496;51.404;7.232;2023-12-28T11:36:56;10.50;1.00
2973;DHT22;1496;51.404;7.232;2023-12-28T11:39:33;10.40;1.00
2973;DHT22;1496;51.404;7.232;2023-12-28T11:42:03;10.40;1.00
2973;DHT22;1496;51.404;7.232;2023-12-28T11:44:38;10.40;1.00
2973;DHT22;1496;51.404;7.232;2023-12-28T11:47:15;10.50;1.00
2973;DHT22;1496;51.404;7.232;2023-12-28T11:49:41;10.50;1.00
2973;DHT22;1496;51.404;7.232;2023-12-28T11:52:08;10.50;1.00
2973;DHT22;1496;51.404;7.232;2023-12-28T11:54:35;10.50;1.00
2973;DHT22;1496;51.404;7.232;2023-12-28T11:57:01;10.60;1.00
2973;DHT22;1496;51.404;7.232;2023-12-28T11:59:27;10.70;1.00
2973;DHT22;1496;51.404;7.232;2023-12-28T12:01:53;10.70;1.00
2973;DHT22;1496;51.404;7.232;2023-12-28T12:04:21;10.80;1.00
2973;DHT22;1496;51.404;7.232;2023-12-28T12:06:48;10.90;1.00
2973;DHT22;1496;51.404;7.232;2023-12-28T12:09:14;10.90;1.00
2973;DHT22;1496;51.404;7.232;2023-12-28T12:11:40;10.80;1.00
2973;DHT22;1496;51.404;7.232;2023-12-28T12:14:12;10.90;1.00
2973;DHT22;1496;51.404;7.232;2023-12-28T12:16:38;10.90;1.00
2973;DHT22;1496;51.404;7.232;2023-12-28T12:19:05;10.80;1.00
2973;DHT22;1496;51.404;7.232;2023-12-28T12:21:33;10.80;1.00
2973;DHT22;1496;51.404;7.232;2023-12-28T12:23:58;10.80;1.00
2973;DHT22;1496;51.404;7.232;2023-12-28T12:26:24;10.80;1.00
2973;DHT22;1496;51.404;7.232;2023-12-28T12:28:51;10.80;1.00
2973;DHT22;1496;51.404;7.232;2023-12-28T12:31:17;10.80;1.00
2973;DHT22;1496;51.404;7.232;2023-12-28T12:33:43;10.80;1.00
2973;DHT22;1496;51.404;7.232;2023-12-28T12:36:09;10.80;1.00
2973;DHT22;1496;51.404;7.232;2023-12-28T12:38:36;10.80;1.00
2973;DHT22;1496;51.404;7.232;2023-12-28T12:41:02;10.70;1.00
2973;DHT22;1496;51.404;7.232;2023-12-28T12:43:28;10.60;1.00
2973;DHT22;1496;51.404;7.232;2023-12-28T12:45:54;10.50;1.00
2973;DHT22;1496;51.404;7.232;2023-12-28T12:48:20;10.60;1.00
2973;DHT22;1496;51.404;7.232;2023-12-28T12:50:45;10.50;1.00
2973;DHT22;1496;51.404;7.232;2023-12-28T12:53:11;10.60;1.00
2973;DHT22;1496;51.404;7.232;2023-12-28T12:55:38;10.60;1.00
2973;DHT22;1496;51.404;7.232;2023-12-28T12:58:11;10.60;1.00
2973;DHT22;1496;51.404;7.232;2023-12-28T13:00:42;10.60;1.00
2973;DHT22;1496;51.404;7.232;2023-12-28T13:03:08;10.60;1.00
2973;DHT22;1496;51.404;7.232;2023-12-28T13:05:37;10.60;1.00
2973;DHT22;1496;51.404;7.232;2023-12-28T13:08:06;10.60;1.00
2973;DHT22;1496;51.404;7.232;2023-12-28T13:10:32;10.50;1.00
2973;DHT22;1496;51.404;7.232;2023-12-28T13:12:57;10.60;1.00
2973;DHT22;1496;51.404;7.232;2023-12-28T13:15:24;10.70;1.00
2973;DHT22;1496;51.404;7.232;2023-12-28T13:17:49;10.70;1.00
2973;DHT22;1496;51.404;7.232;2023-12-28T13:20:15;10.70;1.00
2973;DHT22;1496;51.404;7.232;2023-12-28T13:22:41;10.70;1.00
2973;DHT22;1496;51.404;7.232;2023-12-28T13:25:06;10.70;1.00
2973;DHT22;1496;51.404;7.232;2023-12-28T13:27:32;10.70;1.00
2973;DHT22;1496;51.404;7.232;2023-12-28T13:30:00;10.80;1.00
2973;DHT22;1496;51.404;7.232;2023-12-28T13:32:26;10.70;1.00
2973;DHT22;1496;51.404;7.232;2023-12-28T13:34:52;10.70;1.00
2973;DHT22;1496;51.404;7.232;2023-12-28T13:37:18;10.70;1.00
2973;DHT22;1496;51.404;7.232;2023-12-28T13:39:44;10.70;1.00
2973;DHT22;1496;51.404;7.232;2023-12-28T13:42:10;10.70;1.00
2973;DHT22;1496;51.404;7.232;2023-12-28T13:44:36;10.60;1.00
2973;DHT22;1496;51.404;7.232;2023-12-28T13:47:03;10.60;1.00
2973;DHT22;1496;51.404;7.232;2023-12-28T13:49:29;10.60;1.00
2973;DHT22;1496;51.404;7.232;2023-12-28T13:51:55;10.60;1.00
2973;DHT22;1496;51.404;7.232;2023-12-28T13:54:21;10.40;1.00
2973;DHT22;1496;51.404;7.232;2023-12-28T13:56:47;10.30;1.00
2973;DHT22;1496;51.404;7.232;2023-12-28T13:59:14;10.20;1.00
2973;DHT22;1496;51.404;7.232;2023-12-28T14:01:40;10.30;1.00
2973;DHT22;1496;51.404;7.232;2023-12-28T14:04:06;10.30;1.00
2973;DHT22;1496;51.404;7.232;2023-12-28T14:06:33;10.20;1.00
2973;DHT22;1496;51.404;7.232;2023-12-28T14:08:58;10.10;1.00
2973;DHT22;1496;51.404;7.232;2023-12-28T14:11:24;10.20;1.00
2973;DHT22;1496;51.404;7.232;2023-12-28T14:13:50;10.20;1.00
2973;DHT22;1496;51.404;7.232;2023-12-28T14:16:16;10.10;1.00
2973;DHT22;1496;51.404;7.232;2023-12-28T14:18:42;10.00;1.00
2973;DHT22;1496;51.404;7.232;2023-12-28T14:21:11;10.20;1.00
2973;DHT22;1496;51.404;7.232;2023-12-28T14:23:38;10.30;1.00
2973;DHT22;1496;51.404;7.232;2023-12-28T14:26:15;10.30;1.00
2973;DHT22;1496;51.404;7.232;2023-12-28T14:28:42;10.20;1.00
2973;DHT22;1496;51.404;7.232;2023-12-28T14:31:12;10.20;1.00
2973;DHT22;1496;51.404;7.232;2023-12-28T14:33:38;10.10;1.00
2973;DHT22;1496;51.404;7.232;2023-12-28T14:36:30;10.20;1.00
2973;DHT22;1496;51.404;7.232;2023-12-28T14:39:00;10.00;1.00
2973;DHT22;1496;51.404;7.232;2023-12-28T14:41:26;9.90;1.00
2973;DHT22;1496;51.404;7.232;2023-12-28T14:43:53;9.90;1.00
2973;DHT22;1496;51.404;7.232;2023-12-28T14:46:19;10.00;1.00
2973;DHT22;1496;51.404;7.232;2023-12-28T14:48:45;10.00;1.00
2973;DHT22;1496;51.404;7.232;2023-12-28T14:51:12;10.00;1.00
2973;DHT22;1496;51.404;7.232;2023-12-28T14:53:38;10.00;1.00
2973;DHT22;1496;51.404;7.232;2023-12-28T14:56:04;10.10;1.00
2973;DHT22;1496;51.404;7.232;2023-12-28T14:58:29;10.20;1.00
2973;DHT22;1496;51.404;7.232;2023-12-28T15:00:56;10.20;1.00
2973;DHT22;1496;51.404;7.232;2023-12-28T15:03:22;10.10;1.00
2973;DHT22;1496;51.404;7.232;2023-12-28T15:05:48;10.10;1.00
2973;DHT22;1496;51.404;7.232;2023-12-28T15:08:13;10.10;1.00
2973;DHT22;1496;51.404;7.232;2023-12-28T15:10:39;10.20;1.00
2973;DHT22;1496;51.404;7.232;2023-12-28T15:13:06;10.20;1.00
2973;DHT22;1496;51.404;7.232;2023-12-28T15:15:32;10.20;1.00
2973;DHT22;1496;51.404;7.232;2023-12-28T15:17:58;10.20;1.00
2973;DHT22;1496;51.404;7.232;2023-12-28T15:20:24;10.10;1.00
2973;DHT22;1496;51.404;7.232;2023-12-28T15:22:52;10.00;1.00
2973;DHT22;1496;51.404;7.232;2023-12-28T15:25:18;10.00;1.00
2973;DHT22;1496;51.404;7.232;2023-12-28T15:27:44;9.90;1.00
2973;DHT22;1496;51.404;7.232;2023-12-28T15:30:10;9.90;1.00
2973;DHT22;1496;51.404;7.232;2023-12-28T15:32:38;9.80;1.00
2973;DHT22;1496;51.404;7.232;2023-12-28T15:35:04;9.80;1.00
2973;DHT22;1496;51.404;7.232;2023-12-28T15:37:32;9.70;1.00
2973;DHT22;1496;51.404;7.232;2023-12-28T15:39:58;9.80;1.00
2973;DHT22;1496;51.404;7.232;2023-12-28T15:42:24;9.80;1.00
2973;DHT22;1496;51.404;7.232;2023-12-28T15:44:49;9.70;1.00
2973;DHT22;1496;51.404;7.232;2023-12-28T15:47:15;9.70;1.00
2973;DHT22;1496;51.404;7.232;2023-12-28T15:49:43;9.60;1.00
2973;DHT22;1496;51.404;7.232;2023-12-28T15:52:09;9.60;1.00
2973;DHT22;1496;51.404;7.232;2023-12-28T15:54:34;9.70;1.00
2973;DHT22;1496;51.404;7.232;2023-12-28T15:57:00;9.70;1.00
2973;DHT22;1496;51.404;7.232;2023-12-28T15:59:25;9.80;1.00
2973;DHT22;1496;51.404;7.232;2023-12-28T16:01:51;9.80;1.00
2973;DHT22;1496;51.404;7.232;2023-12-28T16:04:17;9.80;1.00
2973;DHT22;1496;51.404;7.232;2023-12-28T16:06:43;9.80;1.00
2973;DHT22;1496;51.404;7.232;2023-12-28T16:09:08;9.80;1.00
2973;DHT22;1496;51.404;7.232;2023-12-28T16:11:34;9.80;1.00
2973;DHT22;1496;51.404;7.232;2023-12-28T16:14:00;9.90;1.00
2973;DHT22;1496;51.404;7.232;2023-12-28T16:16:26;9.90;1.00
2973;DHT22;1496;51.404;7.232;2023-12-28T16:18:51;9.90;1.00
2973;DHT22;1496;51.404;7.232;2023-12-28T16:21:17;9.90;1.00
2973;DHT22;1496;51.404;7.232;2023-12-28T16:23:43;10.00;1.00
2973;DHT22;1496;51.404;7.232;2023-12-28T16:26:09;9.90;1.00
2973;DHT22;1496;51.404;7.232;2023-12-28T16:28:35;10.00;1.00